Time;durP1;ratioP1;P1;durP2;ratioP2;P2;SDS_P1;SDS_P2;PMS_P1;PMS_P2;Temp;Humidity;BMP_temperature;BMP_pressure;BME280_temperature;BME280_humidity;BME280_pressure;Samples;Min_cycle;Max_cycle;Signal;HPM_P1;HPM_P2
2022/06/09 00:01:00;;;;;;;22.80;10.07;;;;;;;15.92;100.00;99154.41;12179404;19;20528;-79
2022/06/09 00:05:04;;;;;;;19.73;9.32;;;;;;;15.94;100.00;99163.25;12194648;19;20445;-81
2022/06/09 00:09:07;;;;;;;26.33;10.57;;;;;;;15.92;100.00;99162.72;12186767;19;20007;-82
2022/06/09 00:13:08;;;;;;;22.25;9.48;;;;;;;15.88;100.00;99167.25;12173183;19;20035;-81
2022/06/09 00:17:14;;;;;;;20.17;9.60;;;;;;;15.98;100.00;99180.16;12197760;19;20011;-81
2022/06/09 00:21:15;;;;;;;17.92;9.52;;;;;;;16.00;100.00;99185.41;12193711;19;20015;-81
2022/06/09 00:25:18;;;;;;;18.55;8.52;;;;;;;15.94;100.00;99190.19;12183554;19;20018;-81
2022/06/09 00:29:19;;;;;;;17.17;8.57;;;;;;;15.93;100.00;99194.13;12197778;19;20003;-81
2022/06/09 00:33:21;;;;;;;21.55;9.68;;;;;;;15.98;100.00;99193.22;12208747;19;20540;-81
2022/06/09 00:37:22;;;;;;;21.05;8.95;;;;;;;15.93;100.00;99200.50;12178519;19;20100;-82
2022/06/09 00:41:25;;;;;;;16.65;8.48;;;;;;;15.91;100.00;99200.00;12199499;19;20390;-81
2022/06/09 00:45:39;;;;;;;19.00;8.52;;;;;;;15.83;100.00;99200.66;12174540;19;20047;-81
2022/06/09 00:49:44;;;;;;;13.73;8.05;;;;;;;15.74;100.00;99208.00;12196255;19;20017;-81
2022/06/09 00:53:49;;;;;;;19.40;9.10;;;;;;;15.69;100.00;99199.72;12195435;19;21801;-80
2022/06/09 00:57:55;;;;;;;18.52;8.52;;;;;;;15.71;100.00;99200.28;12173859;19;20426;-81
2022/06/09 01:01:59;;;;;;;17.13;8.77;;;;;;;15.78;100.00;99217.38;12183814;19;20021;-79
2022/06/09 01:06:16;;;;;;;14.52;8.25;;;;;;;15.76;100.00;99204.91;12211669;19;20011;-82
2022/06/09 01:10:17;;;;;;;20.08;8.00;;;;;;;15.71;100.00;99211.38;12189438;19;20361;-82
2022/06/09 01:14:26;;;;;;;17.52;8.02;;;;;;;15.66;100.00;99205.84;12209597;19;20401;-81
2022/06/09 01:18:44;;;;;;;18.17;8.27;;;;;;;15.61;100.00;99209.50;12178136;19;20010;-78
2022/06/09 01:24:22;;;;;;;18.83;7.53;;;;;;;15.54;100.00;99216.56;12274242;19;20010;-78
2022/06/09 01:29:19;;;;;;;19.92;8.27;;;;;;;15.48;100.00;99232.47;12197251;19;20009;-83
2022/06/09 01:33:43;;;;;;;16.52;8.65;;;;;;;15.47;100.00;99231.66;12240151;19;20023;-81
2022/06/09 01:37:48;;;;;;;16.05;8.10;;;;;;;15.48;100.00;99227.72;12185369;19;20018;-81
2022/06/09 01:42:16;;;;;;;17.25;7.85;;;;;;;15.40;100.00;99219.22;12242510;19;20018;-78
2022/06/09 01:46:32;;;;;;;17.95;7.97;;;;;;;15.28;100.00;99226.00;12222831;19;20007;-79
2022/06/09 01:50:39;;;;;;;14.40;6.70;;;;;;;15.10;100.00;99232.34;12237809;19;20930;-79
2022/06/09 01:54:43;;;;;;;15.55;6.75;;;;;;;14.99;100.00;99230.78;12210939;19;20372;-82
2022/06/09 01:58:51;;;;;;;17.92;6.25;;;;;;;14.86;100.00;99240.63;12219628;19;20101;-82
2022/06/09 02:03:07;;;;;;;20.80;7.30;;;;;;;14.76;100.00;99244.31;12201983;19;20010;-80
2022/06/09 02:07:12;;;;;;;22.05;6.65;;;;;;;14.68;100.00;99233.03;12191854;19;20019;-82
2022/06/09 02:11:14;;;;;;;16.95;7.07;;;;;;;14.62;100.00;99234.19;12212714;19;20015;-81
2022/06/09 02:15:23;;;;;;;16.13;6.78;;;;;;;14.55;100.00;99238.13;12212815;19;20090;-82
2022/06/09 02:19:27;;;;;;;26.80;8.38;;;;;;;14.53;100.00;99240.34;12191327;19;20031;-80
2022/06/09 02:23:29;;;;;;;12.80;5.82;;;;;;;14.46;100.00;99245.38;12226849;19;20010;-81
2022/06/09 02:27:31;;;;;;;16.92;6.90;;;;;;;14.43;100.00;99245.97;12210580;19;20005;-82
2022/06/09 02:31:35;;;;;;;19.92;7.22;;;;;;;14.38;100.00;99242.41;12228360;19;20017;-79
2022/06/09 02:35:37;;;;;;;15.77;6.30;;;;;;;14.35;100.00;99254.88;12232386;19;20662;-79
2022/06/09 02:39:39;;;;;;;12.05;6.18;;;;;;;14.31;100.00;99262.97;12230939;19;20018;-79
2022/06/09 02:43:41;;;;;;;12.63;6.53;;;;;;;14.27;100.00;99272.94;12244633;19;20014;-80
2022/06/09 02:47:48;;;;;;;27.88;6.82;;;;;;;14.23;100.00;99271.06;12238811;19;20646;-79
2022/06/09 02:51:50;;;;;;;18.13;7.60;;;;;;;14.17;100.00;99267.47;12217167;19;20096;-81
2022/06/09 02:55:52;;;;;;;15.55;6.38;;;;;;;14.11;100.00;99272.22;12243417;19;20015;-78
2022/06/09 02:59:53;;;;;;;18.13;6.93;;;;;;;14.09;100.00;99279.16;12245862;19;20011;-78
2022/06/09 03:03:55;;;;;;;15.02;6.55;;;;;;;14.07;100.00;99278.63;12193272;19;20021;-83
2022/06/09 03:07:57;;;;;;;17.23;7.20;;;;;;;14.05;100.00;99278.91;12211495;19;20014;-82
2022/06/09 03:11:59;;;;;;;16.60;6.67;;;;;;;14.00;100.00;99270.63;12194955;19;20357;-82
2022/06/09 03:16:01;;;;;;;21.50;7.50;;;;;;;13.99;100.00;99276.47;12170592;19;20011;-83
2022/06/09 03:20:04;;;;;;;16.73;6.82;;;;;;;13.99;100.00;99282.00;12195448;19;20051;-83
2022/06/09 03:24:06;;;;;;;16.45;7.75;;;;;;;13.99;100.00;99282.81;12197955;19;20481;-81
2022/06/09 03:28:08;;;;;;;14.65;6.93;;;;;;;14.00;100.00;99289.19;12176170;19;20054;-83
2022/06/09 03:32:09;;;;;;;23.05;6.95;;;;;;;13.95;100.00;99286.44;12191630;19;20066;-82
2022/06/09 03:36:11;;;;;;;18.92;7.07;;;;;;;13.94;100.00;99293.91;12206856;19;20062;-82
2022/06/09 03:40:16;;;;;;;15.52;6.95;;;;;;;13.90;100.00;99298.38;12194147;19;20027;-80
2022/06/09 03:44:18;;;;;;;21.15;7.10;;;;;;;13.93;100.00;99303.34;12219064;19;20011;-81
2022/06/09 03:48:20;;;;;;;21.77;7.07;;;;;;;13.94;100.00;99293.09;12216949;19;20307;-80
2022/06/09 03:52:23;;;;;;;25.33;6.95;;;;;;;13.96;100.00;99299.19;12199339;19;20010;-82
2022/06/09 03:56:25;;;;;;;18.48;7.40;;;;;;;13.91;100.00;99300.84;12217149;19;20015;-80
2022/06/09 04:00:33;;;;;;;21.85;6.80;;;;;;;13.89;100.00;99303.09;12201711;19;20011;-82
2022/06/09 04:04:38;;;;;;;28.08;7.07;;;;;;;13.88;100.00;99306.13;12222836;19;20077;-81
2022/06/09 04:08:39;;;;;;;19.02;7.43;;;;;;;13.86;100.00;99309.22;12213990;19;20046;-82
2022/06/09 04:12:41;;;;;;;16.08;7.13;;;;;;;13.85;100.00;99317.78;12186513;19;20014;-82
2022/06/09 04:16:44;;;;;;;16.85;7.07;;;;;;;13.88;100.00;99323.59;12225600;19;20002;-80
2022/06/09 04:20:46;;;;;;;;;;;;;;;13.87;100.00;99330.25;12222518;19;20014;-80
2022/06/09 04:24:47;;;;;;;17.63;7.30;;;;;;;13.88;100.00;99325.53;12200007;19;19911;-81
2022/06/09 04:28:49;;;;;;;21.55;7.15;;;;;;;13.89;100.00;99327.19;12214616;19;20018;-81
2022/06/09 04:32:52;;;;;;;15.50;6.75;;;;;;;13.88;100.00;99334.66;12207623;19;20417;-79
2022/06/09 04:36:54;;;;;;;16.83;7.47;;;;;;;13.91;100.00;99339.63;12211457;19;20511;-82
2022/06/09 04:40:56;;;;;;;16.17;7.25;;;;;;;13.95;100.00;99351.00;12212157;19;20014;-83
2022/06/09 04:44:57;;;;;;;18.93;6.87;;;;;;;13.97;100.00;99345.97;12223499;19;20094;-84
2022/06/09 04:48:59;;;;;;;17.23;7.68;;;;;;;13.98;100.00;99355.97;12187343;19;20011;-82
2022/06/09 04:53:01;;;;;;;17.63;7.38;;;;;;;13.99;100.00;99357.63;12193899;19;20014;-83
2022/06/09 04:57:04;;;;;;;21.27;8.30;;;;;;;14.07;100.00;99362.56;12212077;19;20034;-79
2022/06/09 05:01:07;;;;;;;18.50;7.32;;;;;;;14.17;100.00;99370.00;12185047;19;20456;-82
2022/06/09 05:05:17;;;;;;;15.95;6.82;;;;;;;14.21;100.00;99386.88;12206542;19;20010;-81
2022/06/09 05:09:19;;;;;;;26.65;8.05;;;;;;;14.23;100.00;99379.13;12214668;19;20025;-82
2022/06/09 05:13:21;;;;;;;19.35;7.53;;;;;;;14.30;100.00;99386.00;12185075;19;20010;-81
2022/06/09 05:17:23;;;;;;;18.30;6.95;;;;;;;14.39;100.00;99399.28;12213391;19;20068;-82
2022/06/09 05:21:25;;;;;;;12.90;6.20;;;;;;;14.42;100.00;99399.53;12195773;19;20501;-83
2022/06/09 05:25:27;;;;;;;21.35;6.45;;;;;;;14.43;100.00;99406.75;12214619;19;20023;-82
2022/06/09 05:29:29;;;;;;;11.27;5.60;;;;;;;14.51;100.00;99408.94;12217832;19;20074;-82
2022/06/09 05:33:31;;;;;;;14.55;5.82;;;;;;;14.53;100.00;99425.28;12178137;19;20007;-83
2022/06/09 05:46:16;;;;;;;15.15;5.38;;;;;;;15.46;100.00;99424.31;12183453;19;20358;-83
2022/06/09 05:50:19;;;;;;;13.07;5.15;;;;;;;15.64;100.00;99441.38;12193101;19;20021;-82
2022/06/09 05:54:20;;;;;;;10.20;4.35;;;;;;;15.74;100.00;99440.50;12175578;19;20817;-84
2022/06/09 05:58:22;;;;;;;14.38;3.95;;;;;;;15.87;100.00;99448.16;12178093;19;20014;-83
2022/06/09 06:02:26;;;;;;;15.80;4.13;;;;;;;16.08;100.00;99448.75;12195416;19;20587;-83
2022/06/09 06:06:33;;;;;;;12.40;3.67;;;;;;;16.16;100.00;99459.22;12183141;19;20016;-82
2022/06/09 06:10:42;;;;;;;8.07;3.22;;;;;;;16.15;100.00;99463.97;12211236;19;20007;-82
2022/06/09 06:14:44;;;;;;;11.70;3.13;;;;;;;16.11;100.00;99462.06;12197406;19;20018;-82
2022/06/09 06:18:46;;;;;;;6.53;2.63;;;;;;;16.11;100.00;99473.19;12182454;19;20014;-81
2022/06/09 06:22:47;;;;;;;11.70;3.17;;;;;;;16.32;100.00;99480.16;12204956;19;20015;-81
2022/06/09 06:26:49;;;;;;;10.23;3.40;;;;;;;16.48;100.00;99475.25;12203868;19;20010;-81
2022/06/09 06:30:52;;;;;;;8.10;3.17;;;;;;;16.76;100.00;99486.59;12190752;19;20074;-80
2022/06/09 06:34:53;;;;;;;8.83;3.57;;;;;;;16.98;100.00;99491.56;12207983;19;20078;-82
2022/06/09 06:38:56;;;;;;;6.75;2.95;;;;;;;17.09;100.00;99490.31;12201549;19;20299;-81
2022/06/09 06:42:57;;;;;;;6.28;2.38;;;;;;;17.17;100.00;99500.78;12185702;19;20006;-82
2022/06/09 06:46:59;;;;;;;9.43;2.67;;;;;;;17.45;100.00;99500.91;12203228;19;20007;-82
2022/06/09 06:51:02;;;;;;;12.55;2.97;;;;;;;17.74;100.00;99509.88;12198167;19;20479;-82
2022/06/09 06:55:05;;;;;;;7.72;2.63;;;;;;;17.89;100.00;99510.78;12183266;19;20047;-82
2022/06/09 06:59:07;;;;;;;9.20;2.65;;;;;;;17.95;100.00;99517.94;12204967;19;20017;-82
2022/06/09 07:03:10;;;;;;;11.18;3.05;;;;;;;18.03;100.00;99517.22;12208071;19;20027;-82
2022/06/09 07:07:32;;;;;;;12.57;2.75;;;;;;;18.18;100.00;99530.06;12189214;19;20088;-81
2022/06/09 07:11:39;;;;;;;4.68;1.98;;;;;;;18.33;100.00;99526.16;12210705;19;20023;-82
2022/06/09 07:15:40;;;;;;;7.13;2.50;;;;;;;18.47;100.00;99534.53;12185715;19;20007;-82
2022/06/09 07:19:42;;;;;;;7.47;2.33;;;;;;;18.22;100.00;99542.25;12210449;19;21069;-81
2022/06/09 07:23:45;;;;;;;4.47;1.88;;;;;;;18.17;100.00;99545.97;12212199;19;20007;-81
2022/06/09 07:27:47;;;;;;;7.05;3.03;;;;;;;18.37;100.00;99538.34;12181953;19;20011;-81
2022/06/09 07:31:49;;;;;;;12.25;2.10;;;;;;;18.69;100.00;99545.81;12201809;19;20017;-81
2022/06/09 07:35:53;;;;;;;6.45;2.08;;;;;;;18.53;100.00;99553.66;12208219;19;20009;-81
2022/06/09 07:39:55;;;;;;;6.13;2.35;;;;;;;18.34;100.00;99552.91;12186750;19;20019;-81
2022/06/09 07:43:59;;;;;;;10.80;2.45;;;;;;;18.04;100.00;99557.91;12203269;19;20014;-80
2022/06/09 07:48:01;;;;;;;8.85;2.20;;;;;;;17.89;100.00;99556.22;12207938;19;20011;-81
2022/06/09 07:52:03;;;;;;;5.75;2.17;;;;;;;18.10;100.00;99559.47;12181283;19;20520;-80
2022/06/09 07:56:05;;;;;;;6.00;2.63;;;;;;;18.61;100.00;99566.06;12250227;19;20010;-80
2022/06/09 08:00:09;;;;;;;7.18;1.90;;;;;;;19.52;100.00;99562.47;12227506;19;20488;-80
2022/06/09 08:04:15;;;;;;;17.15;3.35;;;;;;;19.49;99.44;99558.34;12180731;19;20441;-79
2022/06/09 08:08:17;;;;;;;;;;;;;;;19.05;100.00;99557.09;12215943;19;20063;-80
2022/06/09 08:12:20;;;;;;;;;;;;;;;18.74;100.00;99564.44;12204967;19;20301;-79
2022/06/09 08:16:22;;;;;;;9.30;2.05;;;;;;;18.56;100.00;99569.78;12176962;19;19994;-80
2022/06/09 08:20:26;;;;;;;6.43;1.75;;;;;;;18.45;100.00;99573.91;12203949;19;20002;-80
2022/06/09 08:24:43;;;;;;;5.25;2.20;;;;;;;18.50;100.00;99582.19;12190656;19;20004;-80
2022/06/09 08:28:46;;;;;;;12.30;2.33;;;;;;;18.56;100.00;99589.31;12201663;19;20015;-80
2022/06/09 08:32:47;;;;;;;5.38;2.10;;;;;;;18.69;100.00;99584.88;12203336;19;20505;-79
2022/06/09 08:36:49;;;;;;;7.93;2.20;;;;;;;18.70;100.00;99591.28;12183454;19;20018;-80
2022/06/09 08:41:13;;;;;;;8.32;2.10;;;;;;;18.73;98.51;99593.47;12197139;19;20066;-80
2022/06/09 08:45:27;;;;;;;8.20;2.35;;;;;;;18.99;95.96;99605.78;12194681;19;20034;-80
2022/06/09 08:49:47;;;;;;;6.60;2.63;;;;;;;19.38;94.40;99610.00;12181322;19;20015;-81
2022/06/09 08:53:54;;;;;;;7.13;1.83;;;;;;;19.43;92.42;99614.66;12207618;19;20070;-81
2022/06/09 08:58:02;;;;;;;9.35;2.45;;;;;;;19.37;87.33;99616.72;12174430;19;20003;-81
2022/06/09 09:02:22;;;;;;;5.82;2.00;;;;;;;19.30;89.63;99621.91;12197053;19;20010;-80
2022/06/09 09:07:07;;;;;;;6.38;2.10;;;;;;;19.40;90.05;99620.88;12173017;19;20022;-81
2022/06/09 09:11:08;;;;;;;8.70;2.50;;;;;;;19.78;89.94;99615.81;12192725;19;20051;-81
2022/06/09 09:15:33;;;;;;;4.93;2.63;;;;;;;20.36;86.53;99631.72;12188512;19;20005;-82
2022/06/09 09:19:53;;;;;;;4.43;1.70;;;;;;;20.72;85.02;99622.41;12176990;19;20087;-81
2022/06/09 09:24:22;;;;;;;10.32;2.47;;;;;;;20.86;84.13;99634.34;12197953;19;20010;-81
2022/06/09 09:28:44;;;;;;;8.20;2.15;;;;;;;20.60;82.04;99638.97;12197894;19;20011;-81
2022/06/09 09:43:32;;;;;;;7.60;3.00;;;;;;;19.07;96.36;99644.19;12207161;19;20017;-80
2022/06/09 09:47:54;;;;;;;6.45;2.78;;;;;;;18.89;99.73;99657.09;12230215;19;20251;-82
2022/06/09 09:51:58;;;;;;;7.67;3.00;;;;;;;18.93;100.00;99665.69;12188029;19;20006;-81
2022/06/09 09:56:05;;;;;;;8.98;2.80;;;;;;;19.33;100.00;99652.00;12203361;19;20006;-81
2022/06/09 10:00:28;;;;;;;5.13;2.40;;;;;;;20.01;98.87;99659.44;12209780;19;20011;-81
2022/06/09 10:15:43;;;;;;;;;;;;;;;;;;;;;
2022/06/09 10:20:21;;;;;;;4.88;2.40;;;;;;;20.68;88.40;99688.59;12204237;19;20021;-80
2022/06/09 10:24:31;;;;;;;6.15;1.80;;;;;;;20.79;89.34;99689.13;12212390;19;20023;-81
2022/06/09 10:29:02;;;;;;;4.20;1.60;;;;;;;20.89;85.18;99692.50;12189621;19;20010;-80
2022/06/09 10:33:38;;;;;;;4.30;1.50;;;;;;;21.11;83.50;99687.97;12215363;19;20011;-83
2022/06/09 10:37:46;;;;;;;5.35;2.05;;;;;;;21.48;82.70;99688.66;12190343;19;20081;-80
2022/06/09 10:41:59;;;;;;;8.52;1.83;;;;;;;21.88;78.80;99697.78;12208120;19;20006;-78
2022/06/09 10:46:11;;;;;;;4.47;1.80;;;;;;;21.75;74.56;99704.38;12182252;19;20011;-79
2022/06/09 10:55:19;;;;;;;5.85;2.03;;;;;;;20.25;79.57;99708.66;12183211;19;20342;-80
2022/06/09 10:59:26;;;;;;;6.43;2.13;;;;;;;19.94;81.73;99717.78;12228325;19;20007;-78
2022/06/09 11:03:42;;;;;;;7.13;2.15;;;;;;;19.76;80.00;99721.56;12190750;19;20027;-78
2022/06/09 11:07:53;;;;;;;6.15;1.98;;;;;;;19.87;80.47;99722.13;12222445;19;20018;-80
2022/06/09 11:12:11;;;;;;;9.10;2.10;;;;;;;20.02;79.60;99728.22;12205774;19;20122;-79
2022/06/09 11:16:39;;;;;;;5.88;2.63;;;;;;;20.35;77.76;99728.03;12202154;19;20003;-79
2022/06/09 11:20:52;;;;;;;7.72;2.08;;;;;;;20.97;75.80;99735.72;12227121;19;20009;-79
2022/06/09 11:25:02;;;;;;;6.65;2.45;;;;;;;21.68;75.49;99730.06;12185226;19;20063;-79
2022/06/09 11:29:30;;;;;;;4.75;1.88;;;;;;;22.34;72.47;99729.19;12213214;19;20033;-81
2022/06/09 11:34:10;;;;;;;5.47;2.60;;;;;;;22.69;69.28;99725.19;12181426;19;20038;-81
2022/06/09 11:38:21;;;;;;;7.30;2.00;;;;;;;22.75;69.04;99732.31;12212679;19;20022;-80
2022/06/09 11:42:41;;;;;;;6.68;2.20;;;;;;;22.89;66.29;99725.66;12203764;19;20560;-81
2022/06/09 11:46:44;;;;;;;5.57;1.92;;;;;;;23.39;67.13;99730.66;12191508;19;20010;-81
2022/06/09 11:50:47;;;;;;;6.53;2.35;;;;;;;23.60;63.54;99744.78;12203916;19;20054;-81
2022/06/09 11:54:49;;;;;;;7.65;2.40;;;;;;;23.44;61.81;99736.09;12188171;19;20015;-81
2022/06/09 11:58:51;;;;;;;6.85;2.33;;;;;;;23.73;62.18;99728.84;12209372;19;20089;-83
2022/06/09 12:03:21;;;;;;;;;;;;;;;24.34;58.73;99732.88;12209957;19;20620;-84
2022/06/09 12:07:59;;;;;;;5.65;2.08;;;;;;;24.12;57.74;99721.97;12189122;19;19914;-82
2022/06/09 12:12:24;;;;;;;6.45;1.98;;;;;;;24.15;57.61;99734.53;12204023;19;20010;-82
2022/06/09 12:16:35;;;;;;;6.47;2.05;;;;;;;24.06;57.71;99732.63;12185173;19;20018;-82
2022/06/09 12:20:41;;;;;;;3.50;1.95;;;;;;;24.97;54.21;99740.44;12202830;19;20030;-80
2022/06/09 12:25:08;;;;;;;5.35;2.00;;;;;;;24.45;53.21;99747.41;12205324;19;20019;-81
2022/06/09 12:29:35;;;;;;;9.18;2.30;;;;;;;26.20;51.80;99741.34;12229591;19;20097;-81
2022/06/09 12:33:38;;;;;;;4.78;1.70;;;;;;;27.81;47.69;99747.84;12201014;19;20010;-79
2022/06/09 12:38:00;;;;;;;5.10;1.60;;;;;;;28.38;43.74;99746.34;12200422;19;20014;-81
2022/06/09 12:42:07;;;;;;;;;;;;;;;28.86;43.75;99738.44;12207984;19;20015;-83
2022/06/09 12:46:21;;;;;;;4.88;1.65;;;;;;;29.81;41.96;99749.13;12182362;19;19915;-82
2022/06/09 12:50:34;;;;;;;6.50;2.78;;;;;;;29.50;40.30;99741.66;12208373;19;20043;-82
2022/06/09 12:54:40;;;;;;;9.68;2.10;;;;;;;28.48;42.31;99744.94;12174903;19;20007;-81
2022/06/09 12:58:46;;;;;;;7.90;1.95;;;;;;;29.02;40.79;99747.69;12203889;19;20043;-82
2022/06/09 13:02:49;;;;;;;4.40;1.80;;;;;;;29.24;39.46;99759.44;12211033;19;20480;-81
2022/06/09 13:06:52;;;;;;;3.38;1.48;;;;;;;30.50;37.63;99759.47;12177523;19;20014;-83
2022/06/09 13:11:03;;;;;;;5.88;1.83;;;;;;;30.48;36.39;99759.84;12208921;19;20010;-81
2022/06/09 13:15:08;;;;;;;5.60;1.90;;;;;;;30.51;36.17;99756.22;12207628;19;20018;-81
2022/06/09 13:19:11;;;;;;;6.55;1.83;;;;;;;29.46;38.04;99752.16;12195446;19;20033;-81
2022/06/09 13:23:14;;;;;;;6.13;1.90;;;;;;;28.81;39.10;99770.75;12209286;19;20034;-82
2022/06/09 13:27:21;;;;;;;6.90;3.05;;;;;;;26.89;41.10;99766.78;12216473;19;20718;-81
2022/06/09 13:31:27;;;;;;;7.25;1.60;;;;;;;27.95;40.81;99756.69;12195340;19;20479;-81
2022/06/09 13:35:37;;;;;;;5.05;1.70;;;;;;;28.30;38.89;99761.53;12209383;19;20007;-82
2022/06/09 13:40:09;;;;;;;4.53;1.60;;;;;;;27.92;38.74;99754.59;12199005;19;20523;-83
2022/06/09 13:44:25;;;;;;;3.08;1.08;;;;;;;28.24;37.09;99763.84;12217449;19;20063;-84
2022/06/09 13:48:27;;;;;;;2.78;0.80;;;;;;;28.72;34.40;99764.50;12191783;19;20019;-81
2022/06/09 13:52:36;;;;;;;1.95;0.90;;;;;;;28.04;34.79;99765.78;12208125;19;20014;-81
2022/06/09 13:56:38;;;;;;;2.42;0.90;;;;;;;26.48;36.25;99788.59;12206965;19;20010;-80
2022/06/09 14:00:51;;;;;;;1.65;0.55;;;;;;;25.52;37.70;99789.94;12184235;19;20444;-81
2022/06/09 14:04:58;;;;;;;2.03;0.80;;;;;;;24.94;38.39;99786.25;12205351;19;20019;-80
2022/06/09 14:09:00;;;;;;;8.53;2.40;;;;;;;24.78;38.93;99791.72;12204928;19;20074;-79
2022/06/09 14:13:01;;;;;;;2.73;0.70;;;;;;;24.72;36.99;99787.47;12183063;19;20015;-79
2022/06/09 14:17:04;;;;;;;2.28;0.80;;;;;;;24.46;38.05;99794.13;12211149;19;20030;-80
2022/06/09 14:21:06;;;;;;;1.48;0.60;;;;;;;24.72;38.37;99795.91;12219575;19;20074;-81
2022/06/09 14:25:14;;;;;;;2.42;1.17;;;;;;;25.15;39.18;99795.50;12194066;19;20023;-81
2022/06/09 14:29:19;;;;;;;4.57;0.90;;;;;;;25.59;38.60;99804.28;12220806;19;20011;-81
2022/06/09 14:33:22;;;;;;;4.95;1.30;;;;;;;25.33;38.41;99806.59;12216029;19;20010;-82
2022/06/09 14:37:23;;;;;;;3.93;1.10;;;;;;;25.02;39.33;99805.88;12207901;19;20439;-81
2022/06/09 14:41:26;;;;;;;3.47;1.53;;;;;;;24.61;40.54;99800.31;12244732;19;20003;-80
2022/06/09 14:45:30;;;;;;;4.47;1.35;;;;;;;24.36;41.67;99813.38;12214354;19;20014;-80
2022/06/09 14:49:31;;;;;;;5.97;2.00;;;;;;;24.90;41.33;99808.66;12214390;19;20011;-82
2022/06/09 14:53:33;;;;;;;6.10;1.53;;;;;;;26.27;39.98;99808.53;12210867;19;20285;-80
2022/06/09 14:57:35;;;;;;;3.30;1.80;;;;;;;27.37;38.71;99830.00;12184952;19;20027;-80
2022/06/09 15:01:37;;;;;;;8.45;1.90;;;;;;;26.56;39.82;99841.34;12208410;19;20408;-81
2022/06/09 15:05:41;;;;;;;7.75;2.28;;;;;;;25.59;41.91;99832.50;12205206;19;20021;-80
2022/06/09 15:09:44;;;;;;;4.15;1.92;;;;;;;25.08;42.92;99840.31;12179233;19;20099;-80
2022/06/09 15:13:48;;;;;;;9.52;2.63;;;;;;;25.45;42.65;99840.47;12202276;19;20114;-78
2022/06/09 15:17:53;;;;;;;7.03;1.70;;;;;;;26.20;41.49;99848.66;12196399;19;20078;-80
2022/06/09 15:21:54;;;;;;;7.07;2.13;;;;;;;27.12;40.35;99852.69;12180945;19;20062;-79
2022/06/09 15:25:56;;;;;;;12.05;3.53;;;;;;;27.41;39.97;99859.19;12205880;19;20655;-80
2022/06/09 15:29:59;;;;;;;7.07;1.90;;;;;;;27.54;40.45;99866.41;12207144;19;20047;-79
2022/06/09 15:34:01;;;;;;;3.42;1.08;;;;;;;26.88;39.03;99866.94;12181688;19;20010;-80
2022/06/09 15:38:03;;;;;;;3.15;1.20;;;;;;;26.57;38.77;99862.78;12207981;19;20018;-80
2022/06/09 15:42:28;;;;;;;3.67;1.85;;;;;;;26.25;39.59;99862.56;12207035;19;20014;-78
2022/06/09 15:46:31;;;;;;;4.15;1.20;;;;;;;25.59;40.86;99868.38;12175430;19;20039;-79
2022/06/09 15:50:55;;;;;;;2.78;1.00;;;;;;;24.97;41.54;99872.94;12227379;19;20014;-79
2022/06/09 15:54:57;;;;;;;2.35;0.70;;;;;;;24.71;40.55;99873.94;12183847;19;20003;-80
2022/06/09 15:58:59;;;;;;;2.67;1.20;;;;;;;24.17;39.44;99887.03;12200257;19;20400;-82
2022/06/09 16:03:01;;;;;;;3.60;1.40;;;;;;;23.91;39.97;99890.78;12191090;19;20015;-81
2022/06/09 16:07:03;;;;;;;;;;;;;;;23.31;41.52;99883.34;12180864;19;20007;-82
2022/06/09 16:11:05;;;;;;;3.80;1.70;;;;;;;23.13;42.51;99885.34;12193507;19;20006;-80
2022/06/09 16:15:07;;;;;;;5.45;1.60;;;;;;;22.99;43.23;99888.31;12211910;19;20002;-82
2022/06/09 16:19:09;;;;;;;4.78;1.50;;;;;;;22.85;43.89;99888.47;12192098;19;20373;-82
2022/06/09 16:23:11;;;;;;;5.03;2.17;;;;;;;22.82;44.66;99888.31;12214281;19;20090;-82
2022/06/09 16:27:13;;;;;;;5.72;2.20;;;;;;;22.58;44.86;99885.97;12210432;19;19998;-82
2022/06/09 16:31:15;;;;;;;5.13;1.88;;;;;;;22.43;45.63;99890.91;12190134;19;20116;-84
2022/06/09 16:35:18;;;;;;;4.47;2.10;;;;;;;22.48;45.96;99892.72;12202853;19;20014;-84
2022/06/09 16:39:22;;;;;;;5.50;2.10;;;;;;;22.45;45.67;99890.56;12208782;19;20098;-84
2022/06/09 16:43:24;;;;;;;4.95;1.73;;;;;;;22.43;45.76;99898.50;12190757;19;20037;-82
2022/06/09 16:47:26;;;;;;;5.13;1.70;;;;;;;22.47;46.49;99902.28;12221920;19;20456;-82
2022/06/09 16:51:28;;;;;;;5.93;1.67;;;;;;;22.48;47.42;99907.56;12201464;19;20330;-83
2022/06/09 16:55:30;;;;;;;4.60;1.60;;;;;;;22.65;47.32;99908.78;12216175;19;20015;-84
2022/06/09 16:59:35;;;;;;;6.32;2.40;;;;;;;22.82;46.57;99913.59;12226248;19;20006;-83
2022/06/09 17:03:40;;;;;;;4.90;1.90;;;;;;;22.72;46.08;99915.53;12201916;19;20622;-85
2022/06/09 17:07:45;;;;;;;8.25;2.10;;;;;;;22.71;46.42;99925.13;12235917;19;20011;-82
2022/06/09 17:11:47;;;;;;;10.00;2.25;;;;;;;22.71;46.32;99921.50;12218034;19;20347;-84
2022/06/09 17:16:04;;;;;;;3.97;1.60;;;;;;;22.44;47.04;99919.81;12199757;19;20094;-82
2022/06/09 17:20:37;;;;;;;6.03;1.85;;;;;;;22.39;47.26;99932.00;12246637;19;20025;-83
2022/06/09 17:24:40;;;;;;;2.83;1.42;;;;;;;22.59;46.04;99930.56;12206980;19;20003;-82
2022/06/09 17:28:44;;;;;;;3.90;1.30;;;;;;;22.70;43.96;99933.91;12220435;19;20019;-83
2022/06/09 17:32:45;;;;;;;5.03;1.45;;;;;;;23.31;42.60;99939.56;12218683;19;20010;-82
2022/06/09 17:36:48;;;;;;;1.83;1.10;;;;;;;23.50;42.07;99942.88;12193470;19;20028;-83
2022/06/09 17:40:50;;;;;;;5.00;1.55;;;;;;;23.28;42.68;99949.47;12216810;19;20009;-83
2022/06/09 17:44:52;;;;;;;3.43;1.40;;;;;;;22.88;43.71;99963.66;12215317;19;20014;-82
2022/06/09 17:48:56;;;;;;;3.13;1.42;;;;;;;22.55;44.56;99968.88;12212471;19;20038;-83
2022/06/09 17:52:59;;;;;;;5.80;1.50;;;;;;;22.30;45.23;99971.25;12230119;19;20098;-82
2022/06/09 17:57:01;;;;;;;;;;;;;;;22.02;45.65;99979.06;12227029;19;20019;-82
2022/06/09 18:01:03;;;;;;;3.97;1.52;;;;;;;21.83;46.69;99979.28;12206181;19;19923;-81
2022/06/09 18:05:07;;;;;;;5.07;1.60;;;;;;;21.63;47.22;99990.22;12233348;19;20798;-84
2022/06/09 18:09:09;;;;;;;5.15;2.08;;;;;;;21.45;48.24;99992.88;12270662;19;20014;-83
2022/06/09 18:13:12;;;;;;;4.25;1.65;;;;;;;21.33;48.95;99996.22;12216256;19;20048;-82
2022/06/09 18:17:15;;;;;;;4.05;2.00;;;;;;;21.20;49.75;100001.88;12228158;19;20018;-82
2022/06/09 18:21:17;;;;;;;3.70;1.63;;;;;;;21.10;49.82;100005.75;12260026;19;20022;-83
2022/06/09 18:25:22;;;;;;;3.42;1.70;;;;;;;21.06;50.43;100007.50;12243337;19;20018;-83
2022/06/09 18:29:23;;;;;;;6.95;1.80;;;;;;;21.22;50.50;100025.63;12262497;19;20014;-81
2022/06/09 18:33:26;;;;;;;4.55;2.05;;;;;;;21.04;50.49;100021.84;12232499;19;20014;-85
2022/06/09 18:37:28;;;;;;;6.53;1.80;;;;;;;20.84;50.83;100023.09;12263444;19;20011;-86
2022/06/09 18:41:30;;;;;;;3.97;1.80;;;;;;;20.65;51.43;100031.63;12266973;19;20019;-86
2022/06/09 18:45:34;;;;;;;6.87;2.70;;;;;;;20.52;51.78;100034.41;12238817;19;20007;-85
2022/06/09 18:49:36;;;;;;;4.00;1.70;;;;;;;20.38;52.86;100035.22;12263453;19;20034;-86
2022/06/09 18:53:39;;;;;;;6.80;2.55;;;;;;;20.21;53.64;100038.63;12263409;19;20014;-84
2022/06/09 18:57:41;;;;;;;6.57;2.33;;;;;;;20.00;54.34;100049.34;12216536;19;20006;-83
2022/06/09 19:01:43;;;;;;;6.47;2.20;;;;;;;19.80;55.15;100053.31;12246374;19;20010;-83
2022/06/09 19:05:46;;;;;;;4.95;2.33;;;;;;;19.65;55.49;100066.75;12251514;19;20427;-84
2022/06/09 19:09:48;;;;;;;5.80;3.35;;;;;;;19.47;56.62;100066.41;12230608;19;20483;-84
2022/06/09 19:14:10;;;;;;;5.32;2.58;;;;;;;19.30;56.73;100075.34;12236672;19;20050;-83
2022/06/09 19:18:11;;;;;;;3.75;2.28;;;;;;;19.11;57.92;100078.13;12240676;19;20021;-83
2022/06/09 19:22:13;;;;;;;5.32;2.65;;;;;;;19.02;59.68;100081.88;12223264;19;20006;-84
2022/06/09 19:26:15;;;;;;;7.95;2.55;;;;;;;18.78;62.25;100087.50;12241884;19;20055;-85
2022/06/09 19:30:22;;;;;;;6.85;2.90;;;;;;;18.55;64.13;100092.72;12236631;19;20022;-84
2022/06/09 19:34:25;;;;;;;14.20;5.88;;;;;;;18.30;65.00;100096.63;12223257;19;20007;-84
2022/06/09 19:38:28;;;;;;;8.50;3.22;;;;;;;18.08;66.69;100102.69;12239814;19;20041;-83